createdAt,value
2019-04-01T00:00:14.316Z,3.98
2019-04-01T00:03:38.693Z,3.98
2019-04-01T00:06:43.996Z,3.98
2019-04-01T00:09:57.037Z,3.98
2019-04-01T00:13:04.260Z,3.98
2019-04-01T00:16:10.594Z,3.98
2019-04-01T00:23:07.574Z,3.98
2019-04-01T00:26:14.145Z,3.98
2019-04-01T00:29:28.860Z,3.98
2019-04-01T00:32:39.301Z,3.98
2019-04-01T00:35:50.462Z,3.98
2019-04-01T00:38:55.730Z,3.97
2019-04-01T00:42:04.561Z,3.97
2019-04-01T00:45:31.645Z,3.98
2019-04-01T00:48:43.344Z,3.98
2019-04-01T00:51:52.240Z,3.98
2019-04-01T00:54:58.476Z,3.98
2019-04-01T00:58:11.492Z,3.97
2019-04-01T01:01:16.742Z,3.97
2019-04-01T01:05:20.840Z,3.98
2019-04-01T01:08:22.344Z,3.97
2019-04-01T01:17:19.653Z,3.97
2019-04-01T01:20:37.550Z,3.97
2019-04-01T01:23:46.352Z,3.98
2019-04-01T01:26:57.272Z,3.97
2019-04-01T01:30:04.373Z,3.97
2019-04-01T01:33:16.641Z,3.97
2019-04-01T01:36:23.780Z,3.97
2019-04-01T01:39:35.961Z,3.97
2019-04-01T01:46:30.684Z,3.97
2019-04-01T01:49:36.648Z,3.97
2019-04-01T01:52:41.335Z,3.96
2019-04-01T01:55:54.156Z,3.97
2019-04-01T01:59:05.249Z,3.97
2019-04-01T02:02:16.395Z,3.97
2019-04-01T02:05:27.635Z,3.97
2019-04-01T02:08:38.788Z,3.97
2019-04-01T02:11:44.084Z,3.96
2019-04-01T02:14:54.416Z,3.97
2019-04-01T02:18:04.136Z,3.97
2019-04-01T02:21:09.672Z,3.96
2019-04-01T02:24:18.682Z,3.97
2019-04-01T02:27:25.004Z,3.97
2019-04-01T02:34:26.095Z,3.97
2019-04-01T02:40:56.377Z,3.96
2019-04-01T02:44:13.075Z,3.96
2019-04-01T02:47:17.445Z,3.96
2019-04-01T02:50:31.469Z,3.96
2019-04-01T02:53:44.433Z,3.96
2019-04-01T02:56:51.141Z,3.96
2019-04-01T03:00:03.313Z,3.96
2019-04-01T03:03:14.604Z,3.96
2019-04-01T03:06:19.865Z,3.96
2019-04-01T03:09:28.708Z,3.96
2019-04-01T03:12:40.941Z,3.96
2019-04-01T03:15:52.181Z,3.96
2019-04-01T03:18:59.384Z,3.97
2019-04-01T03:22:11.636Z,3.96
2019-04-01T03:25:16.994Z,3.96
2019-04-01T03:28:27.981Z,3.96
2019-04-01T04:37:03.388Z,3.92
2019-04-01T04:40:05.412Z,3.92
2019-04-01T04:43:11.764Z,3.92
2019-04-01T04:46:20.967Z,3.92
2019-04-01T04:49:27.064Z,3.93
2019-04-01T04:52:33.908Z,3.92
2019-04-01T04:55:40.768Z,3.92
2019-04-01T04:58:49.736Z,3.93
2019-04-01T05:01:56.232Z,3.92
2019-04-01T05:05:03.068Z,3.92
2019-04-01T05:08:10.416Z,3.93
2019-04-01T05:11:17.360Z,3.92
2019-04-01T05:14:24.426Z,3.92
2019-04-01T05:17:31.424Z,3.92
2019-04-01T05:20:38.432Z,3.93
2019-04-01T05:35:38.932Z,3.92
2019-04-01T06:17:49.655Z,3.90
2019-04-01T06:20:52.044Z,3.90
2019-04-01T07:03:13.567Z,3.88
2019-04-01T07:06:24.129Z,3.88
2019-04-01T07:09:29.008Z,3.89
2019-04-01T07:12:35.849Z,3.89
2019-04-01T07:15:42.800Z,3.88
2019-04-01T07:58:01.085Z,3.86
2019-04-01T08:01:03.494Z,3.88
2019-04-01T08:04:10.125Z,3.87
2019-04-01T08:07:17.141Z,3.88
2019-04-01T08:10:24.248Z,3.88
2019-04-01T08:13:33.353Z,3.88
2019-04-01T08:16:39.812Z,3.88
2019-04-01T08:46:04.444Z,3.86
2019-04-01T08:49:07.890Z,3.86
2019-04-01T08:52:13.792Z,3.87
2019-04-01T08:55:22.568Z,3.88
2019-04-01T08:58:29.092Z,3.87
2019-04-01T09:01:36.324Z,3.87
2019-04-01T09:04:43.470Z,3.87
2019-04-01T09:07:52.776Z,3.87
2019-04-01T09:10:59.276Z,3.87
2019-04-01T09:53:17.720Z,3.85
2019-04-01T09:56:20.350Z,3.87
2019-04-01T09:59:26.976Z,3.86
2019-04-01T10:02:34.021Z,3.85
2019-04-01T10:06:40.037Z,3.85
2019-04-01T10:09:50.760Z,3.86
2019-04-01T10:12:55.426Z,3.88
2019-04-01T10:16:09.680Z,3.86
2019-04-01T10:21:10.445Z,3.87
2019-04-01T10:24:18.797Z,3.88
2019-04-01T10:27:23.556Z,3.87
2019-04-01T10:30:30.612Z,3.86
2019-04-01T10:33:37.829Z,3.86
2019-04-01T10:38:41.129Z,3.86
2019-04-01T10:41:46.060Z,3.86
2019-04-01T10:44:52.948Z,3.88
2019-04-01T10:47:59.935Z,3.88
2019-04-01T10:51:26.330Z,3.87
2019-04-01T10:54:41.076Z,3.89
2019-04-01T10:57:51.996Z,3.87
2019-04-01T11:00:58.769Z,3.87
2019-04-01T11:04:06.016Z,3.88
2019-04-01T11:07:17.485Z,3.88
2019-04-01T11:10:30.823Z,3.88
2019-04-01T11:13:35.989Z,3.88
2019-04-01T11:17:41.919Z,3.88
2019-04-01T11:20:44.899Z,3.88
2019-04-01T11:23:52.084Z,3.87
2019-04-01T11:27:06.662Z,3.87
2019-04-01T11:30:26.128Z,3.88
2019-04-01T11:33:34.307Z,3.87
2019-04-01T11:36:47.388Z,3.88
2019-04-01T11:39:52.744Z,3.88
2019-04-01T11:43:07.221Z,3.89
2019-04-01T11:46:13.003Z,3.88
2019-04-01T11:49:20.291Z,3.88
2019-04-01T12:02:32.972Z,3.87
2019-04-01T12:09:22.708Z,3.88
2019-04-01T12:16:12.200Z,3.88
2019-04-01T12:19:12.689Z,3.86
2019-04-01T12:28:14.108Z,3.87
2019-04-01T12:33:18.383Z,3.88
2019-04-01T12:39:41.903Z,3.88
2019-04-01T12:43:17.608Z,3.88
2019-04-01T12:46:24.338Z,3.87
2019-04-01T12:49:38.516Z,3.89
2019-04-01T12:53:12.032Z,3.88
2019-04-01T12:56:14.602Z,3.89
2019-04-01T12:59:21.665Z,3.89
2019-04-01T13:02:29.564Z,3.89
2019-04-01T13:06:35.076Z,3.88
2019-04-01T13:09:36.952Z,3.88
2019-04-01T13:13:48.688Z,3.89
2019-04-01T13:16:52.703Z,3.88
2019-04-01T13:19:59.000Z,3.89
2019-04-01T13:25:05.699Z,3.89
2019-04-01T13:28:10.782Z,3.88
2019-04-01T13:31:20.224Z,3.88
2019-04-01T13:34:26.032Z,3.88
2019-04-01T13:37:44.404Z,3.89
2019-04-01T13:40:50.246Z,3.89
2019-04-01T13:43:57.488Z,3.89
2019-04-01T13:47:19.659Z,3.89
2019-04-01T13:50:24.346Z,3.89
2019-04-01T13:53:38.725Z,3.88
2019-04-01T13:56:50.984Z,3.88
2019-04-01T14:00:00.140Z,3.88
2019-04-01T14:03:06.060Z,3.89
2019-04-01T14:06:15.481Z,3.90
2019-04-01T14:09:22.844Z,3.88
2019-04-01T14:12:30.198Z,3.90
2019-04-01T14:15:37.464Z,3.89
2019-04-01T14:18:51.998Z,3.88
2019-04-01T14:21:57.133Z,3.88
2019-04-01T14:25:18.828Z,3.89
2019-04-01T14:28:26.312Z,3.90
2019-04-01T14:31:32.216Z,3.89
2019-04-01T14:38:34.425Z,3.89
2019-04-01T14:41:36.944Z,3.89
2019-04-01T14:44:43.032Z,3.90
2019-04-01T14:48:08.543Z,3.89
2019-04-01T14:51:13.669Z,3.89
2019-04-01T14:54:28.048Z,3.90
2019-04-01T14:57:33.492Z,3.89
2019-04-01T15:00:40.641Z,3.89
2019-04-01T15:03:54.833Z,3.89
2019-04-01T15:08:55.210Z,3.89
2019-04-01T15:12:24.503Z,3.90
2019-04-01T15:15:26.911Z,3.89
2019-04-01T15:18:41.117Z,3.89
2019-04-01T15:21:47.430Z,3.90
2019-04-01T15:24:54.127Z,3.89
2019-04-01T15:28:01.539Z,3.89
2019-04-01T15:33:07.120Z,3.89
2019-04-01T15:36:08.096Z,3.90
2019-04-01T15:39:17.039Z,3.89
2019-04-01T15:42:24.724Z,3.89
2019-04-01T15:45:31.876Z,3.90
2019-04-01T15:50:35.780Z,3.90
2019-04-01T15:57:06.265Z,3.88
2019-04-01T16:00:13.388Z,3.89
2019-04-01T16:03:25.696Z,3.90
2019-04-01T16:06:36.218Z,3.89
2019-04-01T16:09:42.031Z,3.90
2019-04-01T16:18:39.253Z,3.90
2019-04-01T16:29:30.404Z,3.89
2019-04-01T16:36:20.004Z,3.89
2019-04-01T16:39:34.384Z,3.88
2019-04-01T16:46:28.256Z,3.88
2019-04-01T16:51:12.968Z,3.88
2019-04-01T16:58:04.613Z,3.88
2019-04-01T17:01:05.142Z,3.88
2019-04-01T17:36:55.671Z,3.85
2019-04-01T17:40:07.119Z,3.86
2019-04-01T17:43:13.583Z,3.86
2019-04-01T17:46:21.008Z,3.85
2019-04-01T18:15:44.253Z,3.84
2019-04-01T18:18:46.952Z,3.85
2019-04-01T18:21:53.589Z,3.85
2019-04-01T19:04:12.085Z,3.83
2019-04-01T19:46:28.009Z,3.82
2019-04-01T20:15:45.144Z,3.80
2019-04-01T20:18:47.203Z,3.80
2019-04-01T20:41:39.913Z,3.79
2019-04-01T20:44:44.316Z,3.80
2019-04-01T20:47:50.473Z,3.79
2019-04-01T20:51:01.164Z,3.80
2019-04-01T20:54:12.788Z,3.80
2019-04-01T20:57:27.177Z,3.79
2019-04-01T21:00:32.124Z,3.80
2019-04-01T21:42:50.453Z,3.78
2019-04-01T21:45:53.616Z,3.78
2019-04-01T22:15:13.585Z,3.76
2019-04-01T22:18:25.931Z,3.77
2019-04-01T22:21:34.665Z,3.77
2019-04-01T22:26:34.604Z,3.77
2019-04-01T22:29:35.349Z,3.77
2019-04-01T22:32:46.044Z,3.77
2019-04-01T22:43:42.640Z,3.77
2019-04-01T22:46:47.496Z,3.77
2019-04-01T22:50:02.699Z,3.77
2019-04-01T22:53:16.017Z,3.76
2019-04-01T23:00:09.760Z,3.77
2019-04-01T23:03:10.429Z,3.76
2019-04-01T23:08:13.096Z,3.76
2019-04-01T23:11:13.792Z,3.76
2019-04-01T23:20:11.935Z,3.76
2019-04-01T23:23:11.760Z,3.75
2019-04-01T23:26:18.108Z,3.76
2019-04-01T23:29:24.968Z,3.76
2019-04-01T23:36:22.684Z,3.76
2019-04-01T23:39:26.832Z,3.76
2019-04-01T23:46:22.760Z,3.75
2019-04-01T23:49:22.616Z,3.75
2019-04-01T23:52:31.155Z,3.75
2019-04-01T23:55:37.960Z,3.75
2019-04-01T23:58:44.820Z,3.75
